Time;durP1;ratioP1;P1;durP2;ratioP2;P2;SDS_P1;SDS_P2;PMS_P1;PMS_P2;Temp;Humidity;BMP_temperature;BMP_pressure;BME280_temperature;BME280_humidity;BME280_pressure;Samples;Min_cycle;Max_cycle;Signal;HPM_P1;HPM_P2
2022/11/25 00:01:28;;;;;;;0.40;0.40;;;;;;;14.45;100.00;97993.16;7393558;19;20038;-57
2022/11/25 00:03:55;;;;;;;0.55;0.55;;;;;;;14.71;100.00;98004.22;7391175;19;20011;-56
2022/11/25 00:06:25;;;;;;;1.63;1.00;;;;;;;14.58;100.00;98007.09;7389097;19;20133;-56
2022/11/25 00:08:57;;;;;;;0.25;0.10;;;;;;;14.54;100.00;98006.69;7387664;19;20046;-56
2022/11/25 00:11:24;;;;;;;8.30;1.45;;;;;;;14.51;100.00;98009.84;7392831;19;20042;-56
2022/11/25 00:13:50;;;;;;;0.57;0.08;;;;;;;14.44;100.00;98006.41;7390977;19;20014;-56
2022/11/25 00:16:19;;;;;;;0.10;0.10;;;;;;;14.29;100.00;98008.34;7390468;19;20010;-56
2022/11/25 00:18:48;;;;;;;0.10;0.10;;;;;;;14.17;100.00;98018.25;7394391;19;20014;-56
2022/11/25 00:21:17;;;;;;;0.10;0.10;;;;;;;14.18;100.00;98016.97;7390899;19;20074;-56
2022/11/25 00:23:43;;;;;;;2.15;0.65;;;;;;;14.60;100.00;98026.91;7390379;19;20011;-55
2022/11/25 00:26:12;;;;;;;0.10;0.00;;;;;;;12.85;100.00;98031.66;7390324;19;20010;-55
2022/11/25 00:28:40;;;;;;;0.10;0.00;;;;;;;12.70;100.00;98047.41;7388424;19;20017;-55
2022/11/25 00:31:20;;;;;;;0.10;0.10;;;;;;;11.88;100.00;98044.63;7391651;19;20070;-55
2022/11/25 00:33:47;;;;;;;0.13;0.08;;;;;;;12.44;100.00;98050.13;7388895;19;20014;-55
2022/11/25 00:36:29;;;;;;;2.65;0.57;;;;;;;12.54;100.00;98068.72;7389232;19;20006;-54
2022/11/25 00:38:57;;;;;;;0.10;0.10;;;;;;;13.82;100.00;98072.00;7391148;19;20026;-55
2022/11/25 00:46:57;;;;;;;0.95;0.20;;;;;;;14.83;100.00;98100.75;7390639;19;20038;-54
2022/11/25 00:49:23;;;;;;;0.10;0.10;;;;;;;14.86;100.00;98099.63;7389403;19;20018;-55
2022/11/25 00:51:50;;;;;;;0.20;0.20;;;;;;;15.08;100.00;98090.66;7390914;19;20058;-54
2022/11/25 00:54:16;;;;;;;0.20;0.20;;;;;;;14.91;100.00;98103.59;7388881;19;20677;-54
2022/11/25 00:56:42;;;;;;;4.13;1.20;;;;;;;14.89;100.00;98109.75;7389715;19;20011;-54
2022/11/25 00:59:09;;;;;;;0.10;0.08;;;;;;;15.03;100.00;98102.00;7389618;19;20471;-54
2022/11/25 01:01:38;;;;;;;0.10;0.10;;;;;;;14.71;100.00;98116.31;7390763;19;20010;-54
2022/11/25 01:04:05;;;;;;;0.10;0.10;;;;;;;14.89;100.00;98117.41;7387035;19;20015;-54
2022/11/25 01:06:33;;;;;;;0.20;0.15;;;;;;;14.41;100.00;98121.59;7389176;19;20014;-54
2022/11/25 01:08:59;;;;;;;0.65;0.40;;;;;;;14.37;100.00;98133.16;7388705;19;20046;-54
2022/11/25 01:11:25;;;;;;;0.10;0.00;;;;;;;14.56;100.00;98135.75;7390916;19;20494;-54
2022/11/25 01:13:55;;;;;;;0.10;0.00;;;;;;;13.91;100.00;98136.66;7388868;19;20032;-54
2022/11/25 01:16:21;;;;;;;0.22;0.15;;;;;;;14.14;100.00;98148.16;7388844;19;20007;-54
2022/11/25 01:18:49;;;;;;;0.17;0.17;;;;;;;14.80;100.00;98157.88;7392741;19;20014;-54
2022/11/25 01:21:20;;;;;;;0.10;0.05;;;;;;;14.91;100.00;98154.03;7390626;19;20591;-53
2022/11/25 01:23:47;;;;;;;0.30;0.30;;;;;;;14.85;100.00;98176.63;7386673;19;20022;-54
2022/11/25 01:26:15;;;;;;;11.40;0.47;;;;;;;14.52;100.00;98185.00;7389115;19;20006;-54
2022/11/25 01:28:43;;;;;;;0.10;0.00;;;;;;;14.59;100.00;98192.75;7387184;19;20007;-54
2022/11/25 01:31:16;;;;;;;0.20;0.10;;;;;;;14.54;100.00;98205.59;7390802;19;20007;-54
2022/11/25 01:33:44;;;;;;;0.10;0.10;;;;;;;14.69;100.00;98213.41;7385938;19;20047;-54
2022/11/25 01:36:16;;;;;;;0.10;0.00;;;;;;;15.27;100.00;98210.28;7386891;19;20010;-54
2022/11/25 01:38:43;;;;;;;0.25;0.10;;;;;;;14.94;100.00;98217.44;7387297;19;20010;-54
2022/11/25 01:41:12;;;;;;;5.60;0.90;;;;;;;15.59;100.00;98233.94;7389622;19;20011;-54
2022/11/25 01:43:39;;;;;;;0.30;0.20;;;;;;;15.65;100.00;98242.22;7386695;19;20011;-54
2022/11/25 01:46:26;;;;;;;0.40;0.05;;;;;;;15.71;100.00;98249.19;7387957;19;20027;-54
2022/11/25 01:49:00;;;;;;;0.93;0.20;;;;;;;15.91;100.00;98256.84;7390225;19;20339;-54
2022/11/25 01:51:29;;;;;;;0.10;0.10;;;;;;;15.81;100.00;98257.88;7388082;19;20021;-54
2022/11/25 01:53:58;;;;;;;0.10;0.10;;;;;;;16.04;100.00;98270.03;7386971;19;20015;-54
2022/11/25 01:56:27;;;;;;;0.10;0.10;;;;;;;16.26;100.00;98277.09;7386909;19;20011;-54
2022/11/25 01:58:54;;;;;;;0.10;0.10;;;;;;;16.07;100.00;98273.81;7387736;19;20007;-54
2022/11/25 02:01:21;;;;;;;0.10;0.10;;;;;;;15.98;100.00;98286.28;7387606;19;20015;-54
2022/11/25 02:03:51;;;;;;;3.60;0.30;;;;;;;15.49;100.00;98293.91;7386994;19;20015;-54
2022/11/25 02:06:29;;;;;;;1.10;0.50;;;;;;;15.69;100.00;98302.31;7386068;19;20686;-54
2022/11/25 02:09:04;;;;;;;0.10;0.10;;;;;;;14.81;100.00;98298.75;7386191;19;20018;-54
2022/11/25 02:11:34;;;;;;;0.10;0.10;;;;;;;15.44;100.00;98309.56;7390841;19;20035;-54
2022/11/25 02:14:06;;;;;;;0.10;0.00;;;;;;;15.50;100.00;98315.81;7392987;19;20024;-54
2022/11/25 02:16:32;;;;;;;0.20;0.20;;;;;;;15.70;100.00;98322.72;7397064;19;20035;-54
2022/11/25 02:19:02;;;;;;;0.40;0.30;;;;;;;15.37;100.00;98321.44;7396277;19;20076;-54
2022/11/25 02:21:41;;;;;;;0.10;0.10;;;;;;;15.15;100.00;98331.13;7393999;19;20467;-54
2022/11/25 02:24:37;;;;;;;0.35;0.35;;;;;;;15.19;100.00;98328.75;7392559;19;20018;-54
2022/11/25 02:27:04;;;;;;;0.10;0.10;;;;;;;14.94;100.00;98332.38;7394244;19;20017;-54
2022/11/25 02:29:32;;;;;;;0.10;0.10;;;;;;;14.89;100.00;98336.78;7393954;19;20028;-54
2022/11/25 02:32:00;;;;;;;0.10;0.10;;;;;;;14.86;100.00;98346.28;7397205;19;20019;-54
2022/11/25 02:34:27;;;;;;;0.20;0.10;;;;;;;14.57;100.00;98358.59;7391975;19;20011;-54
2022/11/25 02:36:54;;;;;;;2.10;1.27;;;;;;;14.42;100.00;98352.78;7391879;19;20585;-54
2022/11/25 02:39:21;;;;;;;0.10;0.10;;;;;;;13.88;100.00;98363.66;7392723;19;20032;-54
2022/11/25 02:41:56;;;;;;;3.78;0.22;;;;;;;13.73;100.00;98360.59;7394363;19;20519;-54
2022/11/25 02:44:23;;;;;;;0.32;0.32;;;;;;;13.89;100.00;98373.53;7391086;19;20014;-54
2022/11/25 02:46:50;;;;;;;0.10;0.10;;;;;;;13.84;100.00;98377.94;7392021;19;20010;-53
2022/11/25 02:49:18;;;;;;;0.45;0.35;;;;;;;13.95;100.00;98388.19;7392058;19;20014;-54
2022/11/25 02:51:46;;;;;;;7.32;0.50;;;;;;;14.02;100.00;98387.56;7394131;19;20021;-54
2022/11/25 02:54:15;;;;;;;1.15;0.40;;;;;;;13.81;100.00;98392.25;7392045;19;20025;-54
2022/11/25 02:56:43;;;;;;;0.10;0.00;;;;;;;13.42;100.00;98393.59;7391129;19;20006;-54
2022/11/25 02:59:11;;;;;;;0.20;0.20;;;;;;;13.35;100.00;98404.63;7391282;19;20364;-55
2022/11/25 03:01:38;;;;;;;1.80;0.55;;;;;;;13.20;100.00;98413.47;7391778;19;20014;-54
2022/11/25 03:04:07;;;;;;;0.45;0.45;;;;;;;12.94;100.00;98416.06;7392474;19;20014;-55
2022/11/25 03:06:35;;;;;;;0.10;0.10;;;;;;;12.81;100.00;98427.16;7393214;19;20476;-54
2022/11/25 03:09:03;;;;;;;0.90;0.43;;;;;;;12.63;100.00;98442.56;7393846;19;20345;-54
2022/11/25 03:14:16;;;;;;;1.33;0.65;;;;;;;12.38;100.00;98454.25;7392631;19;20014;-54
2022/11/25 03:16:43;;;;;;;0.10;0.10;;;;;;;12.08;100.00;98459.84;7390390;19;20374;-54
2022/11/25 03:19:10;;;;;;;0.10;0.00;;;;;;;12.05;100.00;98470.00;7390669;19;20010;-53
2022/11/25 03:21:37;;;;;;;0.10;0.10;;;;;;;12.13;100.00;98473.75;7390657;19;20355;-54
2022/11/25 03:24:04;;;;;;;0.10;0.10;;;;;;;12.11;100.00;98470.72;7389745;19;20010;-55
2022/11/25 03:26:32;;;;;;;0.10;0.10;;;;;;;11.98;100.00;98478.16;7391678;19;20019;-55
2022/11/25 03:28:59;;;;;;;0.20;0.20;;;;;;;11.94;100.00;98472.88;7389449;19;20024;-54
2022/11/25 03:31:27;;;;;;;4.53;0.35;;;;;;;11.93;100.00;98482.50;7392817;19;20023;-55
2022/11/25 03:33:55;;;;;;;1.95;0.77;;;;;;;11.89;100.00;98495.97;7390885;19;20333;-54
2022/11/25 03:36:22;;;;;;;0.10;0.10;;;;;;;11.79;100.00;98500.38;7389906;19;20774;-56
2022/11/25 03:38:49;;;;;;;0.35;0.35;;;;;;;11.75;100.00;98511.03;7389927;19;20014;-55
2022/11/25 03:41:16;;;;;;;0.30;0.30;;;;;;;11.62;100.00;98513.63;7392859;19;20773;-55
2022/11/25 03:43:43;;;;;;;0.10;0.10;;;;;;;11.57;100.00;98522.75;7389600;19;20510;-54
2022/11/25 03:46:09;;;;;;;1.02;1.00;;;;;;;11.84;100.00;98529.50;7389452;19;20748;-55
2022/11/25 03:48:37;;;;;;;0.25;0.25;;;;;;;11.78;100.00;98543.47;7392270;19;20077;-55
2022/11/25 03:51:04;;;;;;;0.20;0.20;;;;;;;11.95;100.00;98546.91;7389849;19;20010;-54
2022/11/25 03:53:31;;;;;;;0.10;0.10;;;;;;;12.31;100.00;98566.47;7388884;19;20014;-55
2022/11/25 03:56:00;;;;;;;0.47;0.47;;;;;;;12.30;100.00;98559.38;7389109;19;20010;-56
2022/11/25 03:58:27;;;;;;;3.85;0.60;;;;;;;12.71;100.00;98571.97;7389028;19;20010;-54
2022/11/25 04:01:00;;;;;;;0.10;0.10;;;;;;;12.74;100.00;98586.94;7390223;19;20025;-54
2022/11/25 04:03:28;;;;;;;0.10;0.10;;;;;;;13.35;100.00;98584.34;7388586;19;20597;-54
2022/11/25 04:05:55;;;;;;;0.68;0.63;;;;;;;13.72;100.00;98594.84;7390391;19;20035;-54
2022/11/25 04:08:22;;;;;;;5.97;1.08;;;;;;;13.68;100.00;98609.16;7391297;19;20013;-54
2022/11/25 04:10:50;;;;;;;0.15;0.15;;;;;;;13.73;100.00;98612.41;7389550;19;20027;-54
2022/11/25 04:13:21;;;;;;;0.15;0.15;;;;;;;13.79;100.00;98618.69;7388730;19;20011;-54
2022/11/25 04:15:49;;;;;;;0.10;0.10;;;;;;;13.88;100.00;98626.72;7388655;19;20017;-54
2022/11/25 04:18:22;;;;;;;0.10;0.00;;;;;;;13.82;100.00;98626.03;7392098;19;20110;-60
2022/11/25 04:20:52;;;;;;;0.10;0.10;;;;;;;13.58;100.00;98646.38;7388526;19;20010;-60
2022/11/25 04:23:19;;;;;;;2.95;0.30;;;;;;;13.43;100.00;98649.59;7387713;19;20015;-60
2022/11/25 04:26:07;;;;;;;1.00;0.22;;;;;;;13.24;100.00;98651.56;7388707;19;20424;-60
2022/11/25 04:28:39;;;;;;;0.10;0.10;;;;;;;13.11;100.00;98657.03;7386045;19;20031;-60
2022/11/25 04:31:07;;;;;;;0.10;0.10;;;;;;;13.09;100.00;98662.38;7389625;19;20021;-60
2022/11/25 04:33:37;;;;;;;1.10;0.30;;;;;;;12.90;100.00;98673.44;7386384;19;20022;-59
2022/11/25 04:36:04;;;;;;;0.10;0.00;;;;;;;12.71;100.00;98678.13;7387922;19;20082;-60
2022/11/25 04:38:31;;;;;;;0.20;0.20;;;;;;;12.64;100.00;98683.53;7389223;19;20007;-60
2022/11/25 04:40:59;;;;;;;3.75;1.05;;;;;;;12.68;100.00;98693.16;7389176;19;20023;-60
2022/11/25 04:43:27;;;;;;;0.10;0.10;;;;;;;12.60;100.00;98697.03;7388000;19;20515;-60
2022/11/25 04:46:04;;;;;;;0.10;0.10;;;;;;;12.41;100.00;98699.66;7388026;19;20018;-60
2022/11/25 04:48:32;;;;;;;11.70;0.38;;;;;;;12.58;100.00;98707.94;7389645;19;20014;-59
2022/11/25 04:50:58;;;;;;;1.05;0.20;;;;;;;12.39;100.00;98718.94;7388987;19;20017;-59
2022/11/25 04:53:26;;;;;;;0.25;0.25;;;;;;;12.25;100.00;98727.66;7387825;19;20084;-60
2022/11/25 04:55:54;;;;;;;0.10;0.10;;;;;;;12.19;100.00;98725.66;7385628;19;20024;-59
2022/11/25 05:01:08;;;;;;;0.10;0.10;;;;;;;11.94;100.00;98737.91;7386825;19;20018;-59
2022/11/25 05:03:36;;;;;;;0.10;0.10;;;;;;;11.75;100.00;98734.19;7387195;19;20063;-59
2022/11/25 05:06:08;;;;;;;0.15;0.15;;;;;;;11.54;100.00;98749.66;7387697;19;20633;-59
2022/11/25 05:08:37;;;;;;;0.68;0.50;;;;;;;11.41;100.00;98755.72;7389382;19;20132;-60
2022/11/25 05:11:04;;;;;;;0.73;0.40;;;;;;;11.48;100.00;98754.44;7388672;19;20130;-59
2022/11/25 05:13:31;;;;;;;0.10;0.10;;;;;;;11.54;100.00;98766.38;7387928;19;20042;-59
2022/11/25 05:15:59;;;;;;;0.20;0.20;;;;;;;11.58;100.00;98774.47;7386629;19;20014;-59
2022/11/25 05:18:26;;;;;;;0.90;0.68;;;;;;;11.52;100.00;98776.53;7390643;19;20010;-59
2022/11/25 05:20:53;;;;;;;0.10;0.10;;;;;;;11.62;100.00;98775.75;7386339;19;20622;-59
2022/11/25 05:23:21;;;;;;;0.10;0.10;;;;;;;11.72;100.00;98774.22;7385979;19;20007;-59
2022/11/25 05:25:49;;;;;;;0.15;0.15;;;;;;;11.66;100.00;98784.59;7385465;19;20014;-59
2022/11/25 05:28:44;;;;;;;0.15;0.15;;;;;;;11.71;100.00;98783.88;7384563;19;20014;-60
2022/11/25 05:31:12;;;;;;;0.10;0.10;;;;;;;11.83;100.00;98790.94;7388991;19;20558;-60
2022/11/25 05:33:39;;;;;;;0.10;0.08;;;;;;;11.83;100.00;98802.09;7386267;19;20014;-59
2022/11/25 05:36:09;;;;;;;1.33;0.75;;;;;;;11.76;100.00;98807.47;7386307;19;20010;-59
2022/11/25 05:38:42;;;;;;;2.00;0.63;;;;;;;11.71;100.00;98816.59;7385802;19;20482;-59
2022/11/25 05:41:12;;;;;;;0.10;0.10;;;;;;;11.65;100.00;98822.13;7387445;19;20018;-59
2022/11/25 05:43:41;;;;;;;23.90;1.05;;;;;;;11.71;100.00;98822.16;7386250;19;20023;-59
2022/11/25 05:46:09;;;;;;;0.30;0.30;;;;;;;11.81;100.00;98826.97;7388221;19;20459;-59
2022/11/25 05:48:42;;;;;;;0.10;0.10;;;;;;;11.88;100.00;98832.03;7395041;19;20010;-59
2022/11/25 05:51:09;;;;;;;0.17;0.17;;;;;;;12.05;100.00;98834.78;7394658;19;20014;-59
2022/11/25 05:53:37;;;;;;;0.10;0.10;;;;;;;12.19;100.00;98847.72;7393413;19;20011;-59
2022/11/25 05:56:06;;;;;;;0.10;0.10;;;;;;;12.19;100.00;98845.66;7393465;19;20448;-59
2022/11/25 05:58:53;;;;;;;0.10;0.10;;;;;;;12.16;100.00;98851.53;7394662;19;20011;-60
2022/11/25 06:01:22;;;;;;;0.10;0.10;;;;;;;11.91;100.00;98853.31;7394549;19;20011;-59
2022/11/25 06:03:49;;;;;;;0.10;0.10;;;;;;;11.98;100.00;98868.78;7392580;19;20015;-59
2022/11/25 06:06:17;;;;;;;0.30;0.30;;;;;;;11.97;100.00;98873.63;7392352;19;20039;-59
2022/11/25 06:08:44;;;;;;;0.20;0.20;;;;;;;12.02;100.00;98874.88;7395410;19;20458;-59
2022/11/25 06:11:14;;;;;;;0.10;0.03;;;;;;;11.85;100.00;98883.25;7394297;19;20047;-59
2022/11/25 06:13:45;;;;;;;0.10;0.10;;;;;;;11.73;100.00;98897.72;7393534;19;20021;-59
2022/11/25 06:16:19;;;;;;;10.25;0.52;;;;;;;11.65;100.00;98897.41;7393113;19;20022;-59
2022/11/25 06:18:50;;;;;;;0.38;0.38;;;;;;;11.76;100.00;98908.59;7397312;19;20412;-59
2022/11/25 06:21:18;;;;;;;0.10;0.10;;;;;;;11.63;100.00;98922.25;7393175;19;20070;-59
2022/11/25 06:23:45;;;;;;;0.10;0.10;;;;;;;11.64;100.00;98921.00;7393105;19;20024;-58
2022/11/25 06:26:21;;;;;;;0.45;0.45;;;;;;;11.75;100.00;98929.41;7392757;19;20007;-59
2022/11/25 06:28:52;;;;;;;0.10;0.10;;;;;;;11.64;100.00;98934.94;7392652;19;20017;-59
2022/11/25 06:31:22;;;;;;;0.10;0.10;;;;;;;11.77;100.00;98946.41;7394735;19;20046;-59
2022/11/25 06:34:01;;;;;;;0.20;0.20;;;;;;;12.00;100.00;98955.53;7392252;19;20582;-58
2022/11/25 06:36:28;;;;;;;0.10;0.10;;;;;;;11.96;100.00;98964.16;7393584;19;20025;-58
2022/11/25 06:38:55;;;;;;;10.95;0.50;;;;;;;11.85;100.00;98964.16;7392852;19;20041;-59
2022/11/25 06:41:22;;;;;;;0.10;0.10;;;;;;;11.78;100.00;98984.19;7395722;19;20014;-59
2022/11/25 06:43:49;;;;;;;0.13;0.13;;;;;;;12.00;100.00;98989.03;7392057;19;20011;-59
2022/11/25 06:46:18;;;;;;;0.40;0.40;;;;;;;11.84;100.00;98987.00;7392837;19;20137;-58
2022/11/25 06:48:44;;;;;;;0.10;0.10;;;;;;;11.94;100.00;98991.81;7393135;19;20015;-59
2022/11/25 06:51:14;;;;;;;0.25;0.25;;;;;;;12.23;100.00;99006.56;7393267;19;20014;-58
2022/11/25 06:53:41;;;;;;;0.13;0.13;;;;;;;12.21;100.00;99009.88;7393501;19;20366;-59
2022/11/25 06:56:16;;;;;;;12.35;0.60;;;;;;;12.10;100.00;99016.19;7393317;19;20010;-59
2022/11/25 06:58:44;;;;;;;0.20;0.20;;;;;;;11.95;100.00;99026.81;7393837;19;20491;-59
2022/11/25 07:01:20;;;;;;;0.43;0.43;;;;;;;11.81;100.00;99038.97;7395350;19;20374;-59
2022/11/25 07:03:51;;;;;;;0.47;0.40;;;;;;;11.93;100.00;99037.72;7392388;19;20178;-58
2022/11/25 07:06:19;;;;;;;2.38;1.40;;;;;;;11.86;100.00;99046.59;7393826;19;20017;-58
2022/11/25 07:08:47;;;;;;;0.10;0.00;;;;;;;11.81;100.00;99044.56;7396375;19;20360;-59
2022/11/25 07:11:16;;;;;;;21.17;2.53;;;;;;;12.10;100.00;99060.09;7395277;19;20002;-58
2022/11/25 07:13:43;;;;;;;1.10;0.70;;;;;;;12.08;100.00;99059.84;7393755;19;20030;-58
2022/11/25 07:16:12;;;;;;;0.20;0.20;;;;;;;11.93;100.00;99062.81;7392903;19;20015;-58
2022/11/25 07:18:40;;;;;;;18.58;3.35;;;;;;;12.06;100.00;99079.13;7398289;19;20017;-58
2022/11/25 07:21:11;;;;;;;37.90;6.72;;;;;;;11.86;100.00;99080.09;7388533;19;20017;-59
2022/11/25 07:23:37;;;;;;;68.17;11.47;;;;;;;11.86;100.00;99091.25;7392833;19;20022;-58
2022/11/25 07:26:11;;;;;;;24.92;8.13;;;;;;;11.86;100.00;99101.63;7391773;19;20227;-58
2022/11/25 07:28:38;;;;;;;30.65;7.72;;;;;;;11.94;100.00;99100.63;7392072;19;20011;-58
2022/11/25 07:31:08;;;;;;;37.83;6.95;;;;;;;12.02;100.00;99106.47;7392959;19;20032;-58
2022/11/25 07:33:35;;;;;;;44.55;8.90;;;;;;;12.01;100.00;99111.31;7392748;19;20456;-58
2022/11/25 07:36:06;;;;;;;24.65;5.78;;;;;;;11.79;100.00;99116.81;7392081;19;20441;-58
2022/11/25 07:38:33;;;;;;;11.15;3.97;;;;;;;11.87;100.00;99114.31;7391277;19;20014;-58
2022/11/25 07:41:16;;;;;;;14.65;4.57;;;;;;;11.97;100.00;99130.34;7394274;19;20007;-59
2022/11/25 07:43:44;;;;;;;10.13;2.88;;;;;;;11.92;100.00;99144.25;7394037;19;20017;-60
2022/11/25 07:46:16;;;;;;;16.95;2.88;;;;;;;12.15;100.00;99152.19;7394439;19;20027;-59
2022/11/25 07:48:43;;;;;;;3.17;2.03;;;;;;;12.08;100.00;99166.63;7395581;19;20006;-59
2022/11/25 07:51:17;;;;;;;2.17;1.98;;;;;;;12.01;100.00;99169.94;7396378;19;20014;-59
2022/11/25 07:53:44;;;;;;;3.40;2.83;;;;;;;11.99;100.00;99172.47;7395884;19;20015;-59
2022/11/25 07:56:12;;;;;;;2.97;1.65;;;;;;;12.09;100.00;99184.91;7391675;19;20406;-59
2022/11/25 07:58:38;;;;;;;5.82;1.63;;;;;;;12.13;100.00;99188.22;7391133;19;20014;-59
2022/11/25 08:01:05;;;;;;;6.68;2.75;;;;;;;12.26;100.00;99193.34;7393040;19;20026;-59
2022/11/25 08:03:33;;;;;;;2.67;0.68;;;;;;;12.11;100.00;99193.53;7392873;19;20018;-58
2022/11/25 08:06:04;;;;;;;1.15;1.13;;;;;;;11.92;100.00;99203.63;7394545;19;20011;-54
2022/11/25 08:08:30;;;;;;;0.93;0.82;;;;;;;11.80;100.00;99204.81;7395168;19;20035;-54
2022/11/25 08:10:56;;;;;;;2.88;1.20;;;;;;;11.81;100.00;99214.72;7394944;19;20017;-54
2022/11/25 08:13:23;;;;;;;2.83;0.75;;;;;;;12.02;100.00;99223.69;7394328;19;20018;-54
2022/11/25 08:15:49;;;;;;;2.70;1.08;;;;;;;12.11;100.00;99235.41;7392173;19;20030;-58
2022/11/25 08:18:16;;;;;;;0.70;0.70;;;;;;;11.94;100.00;99237.38;7394680;19;20344;-58
2022/11/25 08:20:42;;;;;;;0.30;0.30;;;;;;;11.98;100.00;99249.06;7390584;19;20460;-58
2022/11/25 08:23:08;;;;;;;1.85;0.52;;;;;;;12.11;100.00;99246.56;7390796;19;20011;-58
2022/11/25 08:25:41;;;;;;;0.10;0.10;;;;;;;12.30;100.00;99240.56;7391526;19;20014;-58
2022/11/25 08:28:08;;;;;;;0.28;0.28;;;;;;;12.36;100.00;99258.09;7388717;19;20015;-58
2022/11/25 08:30:34;;;;;;;0.25;0.20;;;;;;;12.32;100.00;99252.78;7390640;19;20014;-58
2022/11/25 08:33:03;;;;;;;5.63;1.27;;;;;;;12.08;100.00;99264.31;7395035;19;20018;-58
2022/11/25 08:35:30;;;;;;;7.25;0.60;;;;;;;11.97;100.00;99264.28;7388324;19;20028;-58
2022/11/25 08:37:57;;;;;;;0.47;0.47;;;;;;;11.48;100.00;99261.88;7387911;19;20035;-58
2022/11/25 08:40:23;;;;;;;0.10;0.10;;;;;;;11.71;100.00;99272.00;7390405;19;20021;-58
2022/11/25 08:42:49;;;;;;;1.38;0.75;;;;;;;11.80;100.00;99277.34;7390293;19;20010;-58
2022/11/25 08:45:15;;;;;;;0.20;0.20;;;;;;;12.12;100.00;99281.63;7389993;19;20015;-58
2022/11/25 08:47:41;;;;;;;0.28;0.28;;;;;;;11.99;100.00;99284.06;7391847;19;20346;-59
2022/11/25 08:50:12;;;;;;;6.93;0.52;;;;;;;12.01;100.00;99298.28;7390972;19;20011;-58
2022/11/25 08:52:38;;;;;;;0.47;0.47;;;;;;;12.17;100.00;99300.41;7393975;19;20027;-58
2022/11/25 08:55:05;;;;;;;3.58;2.58;;;;;;;12.27;100.00;99303.00;7388213;19;20015;-58
2022/11/25 08:57:31;;;;;;;1.85;0.40;;;;;;;11.90;100.00;99303.81;7390007;19;20022;-58
2022/11/25 08:59:57;;;;;;;0.95;0.93;;;;;;;12.05;100.00;99304.41;7390645;19;20035;-59
2022/11/25 09:02:23;;;;;;;0.10;0.10;;;;;;;12.24;100.00;99315.13;7393715;19;20463;-59
2022/11/25 09:04:50;;;;;;;0.80;0.70;;;;;;;12.27;100.00;99319.75;7390886;19;20031;-58
2022/11/25 09:07:16;;;;;;;2.17;0.65;;;;;;;12.18;100.00;99335.44;7390081;19;20011;-58
2022/11/25 09:09:43;;;;;;;0.32;0.28;;;;;;;11.89;100.00;99341.31;7386106;19;20043;-58
2022/11/25 09:12:09;;;;;;;0.75;0.70;;;;;;;11.91;100.00;99347.16;7391777;19;20370;-59
2022/11/25 09:14:35;;;;;;;0.85;0.85;;;;;;;12.00;100.00;99344.19;7388209;19;20019;-59
2022/11/25 09:17:02;;;;;;;1.35;0.32;;;;;;;11.85;100.00;99340.03;7390313;19;20010;-59
2022/11/25 09:19:28;;;;;;;1.00;0.73;;;;;;;11.87;100.00;99352.22;7388067;19;20010;-59
2022/11/25 09:21:55;;;;;;;0.25;0.25;;;;;;;11.93;100.00;99350.22;7398803;19;20011;-59
2022/11/25 09:24:21;;;;;;;3.90;0.68;;;;;;;11.87;100.00;99354.25;7395382;19;20018;-60
2022/11/25 09:26:48;;;;;;;0.50;0.50;;;;;;;12.02;100.00;99366.78;7396441;19;20011;-59
2022/11/25 09:29:14;;;;;;;0.10;0.10;;;;;;;11.99;100.00;99355.88;7393141;19;20010;-59
2022/11/25 09:31:40;;;;;;;11.68;0.85;;;;;;;12.22;100.00;99356.75;7396827;19;20488;-59
2022/11/25 09:34:08;;;;;;;0.50;0.30;;;;;;;12.24;100.00;99365.38;7394438;19;20031;-59
2022/11/25 09:36:34;;;;;;;0.10;0.10;;;;;;;12.35;100.00;99357.09;7396605;19;20011;-59
2022/11/25 09:39:01;;;;;;;2.83;0.95;;;;;;;12.93;100.00;99359.09;7394273;19;20524;-59
2022/11/25 09:47:15;;;;;;;0.68;0.52;;;;;;;13.04;100.00;99359.13;7396719;19;20010;-59
2022/11/25 09:49:57;;;;;;;1.33;0.60;;;;;;;13.19;100.00;99359.72;7392356;19;20010;-59
2022/11/25 09:53:11;;;;;;;0.32;0.32;;;;;;;13.43;100.00;99351.63;7399539;19;20748;-59
2022/11/25 09:55:45;;;;;;;1.27;0.47;;;;;;;13.43;100.00;99357.22;7394657;19;20006;-59
2022/11/25 09:58:31;;;;;;;0.17;0.17;;;;;;;13.50;100.00;99367.91;7396062;19;20496;-59
2022/11/25 10:01:00;;;;;;;0.82;0.75;;;;;;;13.54;100.00;99362.81;7395074;19;20070;-60
2022/11/25 10:03:40;;;;;;;0.98;0.80;;;;;;;13.64;100.00;99368.94;7395518;19;20014;-59
2022/11/25 10:06:17;;;;;;;1.65;0.60;;;;;;;13.77;100.00;99377.59;7396534;19;20305;-59
2022/11/25 10:08:47;;;;;;;1.33;0.60;;;;;;;13.88;100.00;99390.81;7396772;19;20010;-59
2022/11/25 10:11:20;;;;;;;0.28;0.28;;;;;;;13.80;100.00;99384.94;7395893;19;20046;-60
2022/11/25 10:14:00;;;;;;;0.20;0.20;;;;;;;13.94;100.00;99394.38;7394228;19;20012;-59
2022/11/25 10:16:26;;;;;;;1.45;0.57;;;;;;;14.02;100.00;99389.78;7394374;19;20019;-59
2022/11/25 10:18:59;;;;;;;5.47;0.63;;;;;;;14.02;100.00;99396.16;7398375;19;20035;-59
2022/11/25 10:21:26;;;;;;;9.63;0.80;;;;;;;14.23;100.00;99411.38;7392928;19;20133;-59
2022/11/25 10:23:53;;;;;;;0.17;0.17;;;;;;;14.45;100.00;99416.22;7391431;19;20738;-59
2022/11/25 10:26:26;;;;;;;0.32;0.32;;;;;;;14.50;100.00;99417.50;7393474;19;20015;-59
2022/11/25 10:29:23;;;;;;;0.47;0.20;;;;;;;14.61;100.00;99428.69;7392026;19;20019;-60
2022/11/25 10:31:58;;;;;;;0.28;0.28;;;;;;;14.68;100.00;99444.97;7390810;19;20035;-60
2022/11/25 10:34:45;;;;;;;0.40;0.30;;;;;;;14.71;100.00;99453.09;7394313;19;20437;-60
2022/11/25 10:37:21;;;;;;;0.30;0.22;;;;;;;14.72;100.00;99463.06;7393900;19;20381;-60
2022/11/25 10:39:47;;;;;;;0.17;0.17;;;;;;;15.10;100.00;99464.94;7392224;19;20038;-60
2022/11/25 10:42:19;;;;;;;23.13;0.93;;;;;;;14.92;100.00;99465.53;7396454;19;20041;-60
2022/11/25 10:44:45;;;;;;;6.97;0.82;;;;;;;14.96;100.00;99474.47;7393231;19;20014;-60
2022/11/25 10:47:20;;;;;;;0.40;0.25;;;;;;;15.28;100.00;99485.28;7394010;19;20607;-60
2022/11/25 10:50:00;;;;;;;0.55;0.45;;;;;;;15.04;100.00;99488.69;7391830;19;20463;-60
2022/11/25 10:52:29;;;;;;;0.10;0.10;;;;;;;14.99;100.00;99495.06;7397869;19;20011;-60
2022/11/25 10:55:12;;;;;;;3.60;1.63;;;;;;;14.77;100.00;99497.97;7392523;19;20028;-60
2022/11/25 10:57:39;;;;;;;0.20;0.20;;;;;;;14.83;100.00;99502.28;7394237;19;20482;-60
2022/11/25 11:00:07;;;;;;;0.40;0.40;;;;;;;14.80;100.00;99485.69;7394665;19;20011;-60
2022/11/25 11:02:34;;;;;;;0.20;0.20;;;;;;;14.90;100.00;99492.56;7395889;19;20345;-60
2022/11/25 11:05:09;;;;;;;0.30;0.10;;;;;;;14.91;100.00;99497.66;7393856;19;20034;-60
2022/11/25 11:07:38;;;;;;;0.47;0.47;;;;;;;15.18;100.00;99510.06;7396434;19;20018;-60
2022/11/25 11:10:16;;;;;;;0.25;0.20;;;;;;;15.12;100.00;99507.28;7393791;19;20007;-60
2022/11/25 11:13:03;;;;;;;0.95;0.30;;;;;;;15.19;100.00;99512.34;7398508;19;20014;-60
2022/11/25 11:15:31;;;;;;;0.20;0.20;;;;;;;14.88;100.00;99515.50;7394030;19;20011;-60
2022/11/25 11:18:12;;;;;;;0.22;0.22;;;;;;;14.64;100.00;99512.47;7396942;19;20470;-60
2022/11/25 11:20:45;;;;;;;0.85;0.70;;;;;;;14.88;100.00;99503.50;7392997;19;20035;-59
2022/11/25 11:23:13;;;;;;;8.98;0.43;;;;;;;15.20;100.00;99516.66;7391487;19;20034;-60
2022/11/25 11:25:42;;;;;;;0.85;0.45;;;;;;;15.31;100.00;99517.94;7393926;19;20015;-60
2022/11/25 11:28:23;;;;;;;0.32;0.28;;;;;;;15.59;100.00;99521.41;7393072;19;20018;-60
2022/11/25 11:30:57;;;;;;;0.10;0.10;;;;;;;15.69;100.00;99531.81;7393758;19;20031;-60
2022/11/25 11:33:28;;;;;;;0.17;0.17;;;;;;;15.74;100.00;99533.06;7393318;19;20010;-59
2022/11/25 11:36:30;;;;;;;0.95;0.68;;;;;;;15.89;100.00;99527.88;7393194;19;20032;-61
2022/11/25 11:39:18;;;;;;;1.85;0.10;;;;;;;16.16;100.00;99535.34;7391817;19;20027;-61
2022/11/25 11:41:48;;;;;;;3.45;1.08;;;;;;;16.04;100.00;99533.91;7394763;19;20010;-60
2022/11/25 11:44:32;;;;;;;0.20;0.20;;;;;;;16.13;100.00;99547.63;7391546;19;20019;-60
2022/11/25 11:47:01;;;;;;;3.33;0.93;;;;;;;15.97;100.00;99558.97;7393299;19;20027;-61
2022/11/25 11:49:55;;;;;;;1.33;0.30;;;;;;;16.06;100.00;99565.03;7391083;19;20038;-61
2022/11/25 11:52:43;;;;;;;0.40;0.40;;;;;;;16.29;100.00;99563.59;7394632;19;20490;-61
2022/11/25 11:55:27;;;;;;;10.50;0.45;;;;;;;16.26;100.00;99566.69;7391797;19;20027;-61